Airport ICAO


00:48 UTC

0°C

Clear skies


An affordable passengers' Moving Map for your aircraft. Made for the iPad and the iPhone
More information here

LFPB Le Bourget


Paris FRANCE   VFR CAVOK


METAR LFPB 230030Z AUTO 02006KT CAVOK M00/M05 Q1018 NOSIG 0h18min

TAF LFPB 222300Z 2300/2324 03010KT CAVOK TEMPO 2305/2317 05010G20KT 1h48min





NOTAMS

OPEN